createdAt,value
2022-12-14T00:00:53.568Z,2.16
2022-12-14T00:01:53.448Z,2.23
2022-12-14T00:02:53.472Z,2.18
2022-12-14T00:03:53.429Z,2.21
2022-12-14T00:04:53.322Z,2.18
2022-12-14T00:05:53.256Z,2.14
2022-12-14T00:06:53.207Z,2.21
2022-12-14T00:07:53.155Z,2.16
2022-12-14T00:08:53.126Z,2.01
2022-12-14T00:09:53.054Z,1.88
2022-12-14T00:10:53.010Z,1.86
2022-12-14T00:11:52.981Z,1.89
2022-12-14T00:12:52.905Z,1.85
2022-12-14T00:13:52.885Z,2.00
2022-12-14T00:14:52.810Z,1.98
2022-12-14T00:15:52.787Z,2.00
2022-12-14T00:16:52.706Z,2.00
2022-12-14T00:17:52.660Z,2.12
2022-12-14T00:18:52.637Z,2.18
2022-12-14T00:19:52.565Z,2.21
2022-12-14T00:20:52.512Z,2.07
2022-12-14T00:21:52.462Z,2.07
2022-12-14T00:22:52.414Z,2.07
2022-12-14T00:23:52.366Z,2.05
2022-12-14T00:24:52.340Z,1.95
2022-12-14T00:25:52.265Z,2.05
2022-12-14T00:26:52.239Z,1.98
2022-12-14T00:27:52.169Z,1.95
2022-12-14T00:28:52.113Z,1.98
2022-12-14T00:29:52.069Z,1.95
2022-12-14T00:30:58.029Z,1.92
2022-12-14T00:31:52.001Z,1.98
2022-12-14T00:32:52.035Z,1.88
2022-12-14T00:33:51.882Z,1.88
2022-12-14T00:34:51.821Z,1.84
2022-12-14T00:35:51.774Z,1.84
2022-12-14T00:36:51.725Z,1.85
2022-12-14T00:37:51.679Z,1.75
2022-12-14T00:38:51.651Z,1.88
2022-12-14T00:39:51.576Z,1.78
2022-12-14T00:40:51.526Z,1.86
2022-12-14T00:41:51.479Z,2.00
2022-12-14T00:42:51.450Z,1.82
2022-12-14T00:43:51.375Z,1.88
2022-12-14T00:44:51.324Z,1.85
2022-12-14T00:45:51.292Z,1.92
2022-12-14T00:46:51.257Z,1.82
2022-12-14T00:47:51.204Z,1.76
2022-12-14T00:48:51.152Z,1.88
2022-12-14T00:49:51.077Z,1.88
2022-12-14T00:50:51.032Z,1.78
2022-12-14T00:51:50.981Z,1.74
2022-12-14T00:52:50.937Z,1.70
2022-12-14T00:53:50.912Z,1.71
2022-12-14T00:54:50.836Z,1.75
2022-12-14T00:55:50.780Z,1.82
2022-12-14T00:56:50.755Z,1.82
2022-12-14T00:57:50.697Z,1.63
2022-12-14T00:58:50.637Z,1.67
2022-12-14T00:59:50.584Z,1.74
2022-12-14T01:00:50.539Z,1.79
2022-12-14T01:01:50.589Z,1.79
2022-12-14T01:02:50.455Z,1.84
2022-12-14T01:03:50.475Z,1.81
2022-12-14T01:04:50.339Z,1.78
2022-12-14T01:05:50.288Z,1.64
2022-12-14T01:06:50.251Z,1.61
2022-12-14T01:07:50.190Z,1.57
2022-12-14T01:08:50.140Z,1.64
2022-12-14T01:09:50.083Z,1.64
2022-12-14T01:10:50.036Z,1.64
2022-12-14T01:11:49.989Z,1.56
2022-12-14T01:12:49.961Z,1.57
2022-12-14T01:13:49.956Z,1.57
2022-12-14T01:14:49.839Z,1.60
2022-12-14T01:15:49.840Z,1.66
2022-12-14T01:16:49.744Z,1.67
2022-12-14T01:17:49.690Z,1.70
2022-12-14T01:18:49.641Z,1.78
2022-12-14T01:19:49.593Z,1.85
2022-12-14T01:20:49.544Z,1.71
2022-12-14T01:21:49.519Z,1.71
2022-12-14T01:22:49.444Z,1.78
2022-12-14T01:23:49.398Z,1.76
2022-12-14T01:24:49.342Z,1.82
2022-12-14T01:25:49.314Z,1.82
2022-12-14T01:26:49.245Z,1.84
2022-12-14T01:27:49.195Z,1.88
2022-12-14T01:28:49.151Z,1.86
2022-12-14T01:29:49.096Z,2.00
2022-12-14T01:30:49.096Z,2.04
2022-12-14T01:31:49.055Z,2.01
2022-12-14T01:32:48.946Z,2.10
2022-12-14T01:33:48.897Z,2.08
2022-12-14T01:34:48.849Z,2.12
2022-12-14T01:35:48.800Z,2.12
2022-12-14T01:36:48.752Z,2.10
2022-12-14T01:37:49.075Z,2.07
2022-12-14T01:38:48.652Z,2.10
2022-12-14T01:39:48.601Z,2.16
2022-12-14T01:40:48.555Z,2.14
2022-12-14T01:41:48.508Z,2.12
2022-12-14T01:42:48.478Z,2.08
2022-12-14T01:43:48.717Z,2.23
2022-12-14T01:44:48.379Z,2.19
2022-12-14T01:45:48.305Z,2.08
2022-12-14T01:46:48.300Z,2.14
2022-12-14T01:47:48.206Z,2.12
2022-12-14T01:48:48.158Z,2.03
2022-12-14T01:49:48.135Z,2.10
2022-12-14T01:50:48.059Z,2.08
2022-12-14T01:51:48.012Z,2.18
2022-12-14T01:52:47.959Z,2.01
2022-12-14T01:53:47.911Z,2.05
2022-12-14T01:54:48.933Z,2.05
2022-12-14T01:55:48.999Z,2.05
2022-12-14T01:56:47.773Z,1.97
2022-12-14T01:57:47.713Z,2.07
2022-12-14T01:58:47.665Z,2.07
2022-12-14T01:59:47.619Z,2.12
2022-12-14T02:00:47.570Z,2.08
2022-12-14T02:01:48.338Z,2.14
2022-12-14T02:02:47.584Z,2.15
2022-12-14T02:03:47.521Z,2.14
2022-12-14T02:04:47.369Z,2.14
2022-12-14T02:05:47.319Z,2.08
2022-12-14T02:06:47.271Z,2.10
2022-12-14T02:07:48.907Z,2.14
2022-12-14T02:08:47.172Z,1.98
2022-12-14T02:09:47.122Z,1.97
2022-12-14T02:10:47.070Z,1.88
2022-12-14T02:11:47.020Z,1.92
2022-12-14T02:12:46.972Z,2.01
2022-12-14T02:13:48.803Z,1.98
2022-12-14T02:14:46.875Z,1.95
2022-12-14T02:15:46.906Z,2.01
2022-12-14T02:16:46.775Z,1.93
2022-12-14T02:17:46.723Z,1.93
2022-12-14T02:18:46.680Z,1.88
2022-12-14T02:19:46.627Z,1.84
2022-12-14T02:20:46.575Z,1.98
2022-12-14T02:21:46.553Z,1.75
2022-12-14T02:22:46.477Z,1.70
2022-12-14T02:23:46.427Z,1.75
2022-12-14T02:24:46.381Z,1.71
2022-12-14T02:25:49.458Z,1.75
2022-12-14T02:26:46.275Z,1.78
2022-12-14T02:27:46.261Z,1.74
2022-12-14T02:28:46.183Z,1.82
2022-12-14T02:29:46.131Z,1.68
2022-12-14T02:30:46.083Z,1.82
2022-12-14T02:31:46.107Z,1.82
2022-12-14T02:32:45.985Z,1.84
2022-12-14T02:33:45.962Z,1.82
2022-12-14T02:34:45.882Z,1.88
2022-12-14T02:35:45.837Z,2.03
2022-12-14T02:36:45.783Z,2.00
2022-12-14T02:37:45.736Z,1.97
2022-12-14T02:38:45.684Z,2.14
2022-12-14T02:39:45.651Z,2.14
2022-12-14T02:40:45.586Z,2.14
2022-12-14T02:41:45.538Z,2.18
2022-12-14T02:42:45.491Z,2.14
2022-12-14T02:43:45.435Z,2.03
2022-12-14T02:44:45.385Z,1.98
2022-12-14T02:45:45.370Z,2.00
2022-12-14T02:46:50.061Z,1.88
2022-12-14T02:47:45.240Z,1.78
2022-12-14T02:48:45.189Z,1.75
2022-12-14T02:49:49.226Z,1.86
2022-12-14T02:50:45.106Z,1.92
2022-12-14T02:51:45.068Z,1.79
2022-12-14T02:52:44.996Z,1.86
2022-12-14T02:53:44.942Z,1.93
2022-12-14T02:54:44.917Z,1.97
2022-12-14T02:55:44.843Z,1.85
2022-12-14T02:56:44.791Z,1.93
2022-12-14T02:57:44.743Z,2.00
2022-12-14T02:58:44.724Z,1.95
2022-12-14T02:59:44.646Z,2.08
2022-12-14T03:00:44.631Z,2.07
2022-12-14T03:01:45.460Z,2.12
2022-12-14T03:02:44.618Z,2.12
2022-12-14T03:03:44.562Z,2.05
2022-12-14T03:04:44.398Z,2.07
2022-12-14T03:05:44.348Z,2.04
2022-12-14T03:06:44.305Z,1.97
2022-12-14T03:07:44.250Z,2.14
2022-12-14T03:08:44.209Z,2.18
2022-12-14T03:09:44.185Z,2.05
2022-12-14T03:10:44.114Z,2.22
2022-12-14T03:11:44.054Z,2.22
2022-12-14T03:12:44.009Z,2.25
2022-12-14T03:13:43.948Z,2.18
2022-12-14T03:14:43.908Z,2.21
2022-12-14T03:15:43.884Z,2.16
2022-12-14T03:16:43.829Z,2.25
2022-12-14T03:17:43.772Z,2.36
2022-12-14T03:18:43.706Z,2.25
2022-12-14T03:19:43.658Z,2.26
2022-12-14T03:20:43.692Z,2.30
2022-12-14T03:21:43.559Z,2.30
2022-12-14T03:22:43.508Z,2.32
2022-12-14T03:23:43.488Z,2.36
2022-12-14T03:24:43.412Z,2.37
2022-12-14T03:25:43.361Z,2.36
2022-12-14T03:26:47.359Z,2.30
2022-12-14T03:27:43.286Z,2.25
2022-12-14T03:28:43.213Z,2.25
2022-12-14T03:29:43.186Z,2.30
2022-12-14T03:31:00.425Z,2.25
2022-12-14T03:31:43.097Z,2.22
2022-12-14T03:32:43.014Z,2.26
2022-12-14T03:33:42.968Z,2.30
2022-12-14T03:34:42.922Z,2.25
2022-12-14T03:35:42.897Z,2.26
2022-12-14T03:36:42.822Z,2.28
2022-12-14T03:37:42.768Z,2.32
2022-12-14T03:38:42.762Z,2.25
2022-12-14T03:39:42.799Z,2.33
2022-12-14T03:40:42.625Z,2.25
2022-12-14T03:41:42.576Z,2.26
2022-12-14T03:42:42.522Z,2.33
2022-12-14T03:43:42.475Z,2.28
2022-12-14T03:44:49.473Z,2.25
2022-12-14T03:45:42.444Z,2.30
2022-12-14T03:46:42.364Z,2.26
2022-12-14T03:47:42.279Z,2.23
2022-12-14T03:48:42.228Z,2.21
2022-12-14T03:49:42.181Z,2.25
2022-12-14T03:50:42.127Z,2.33
2022-12-14T03:51:42.104Z,2.25
2022-12-14T03:52:42.056Z,2.30
2022-12-14T03:53:41.977Z,2.30
2022-12-14T03:54:41.931Z,2.33
2022-12-14T03:55:41.905Z,2.26
2022-12-14T03:56:41.836Z,2.22
2022-12-14T03:57:41.789Z,2.22
2022-12-14T03:58:41.737Z,2.21
2022-12-14T03:59:41.712Z,2.33
2022-12-14T04:00:41.688Z,2.26
2022-12-14T04:01:41.693Z,2.28
2022-12-14T04:02:41.625Z,2.26
2022-12-14T04:03:41.489Z,2.30
2022-12-14T04:04:41.456Z,2.34
2022-12-14T04:05:47.002Z,2.36
2022-12-14T04:06:41.365Z,2.36
2022-12-14T04:07:41.294Z,2.41
2022-12-14T04:08:41.242Z,2.43
2022-12-14T04:09:41.191Z,2.44
2022-12-14T04:10:41.147Z,2.41
2022-12-14T04:11:41.093Z,2.44
2022-12-14T04:12:42.586Z,2.51
2022-12-14T04:13:40.994Z,2.46
2022-12-14T04:14:40.948Z,2.50
2022-12-14T04:15:40.897Z,2.43
2022-12-14T04:16:40.892Z,2.50
2022-12-14T04:17:40.825Z,2.37
2022-12-14T04:18:40.749Z,2.36
2022-12-14T04:19:40.700Z,2.36
2022-12-14T04:20:40.647Z,2.36
2022-12-14T04:21:40.605Z,2.39
2022-12-14T04:22:40.557Z,2.40
2022-12-14T04:23:40.528Z,2.41
2022-12-14T04:24:40.459Z,2.43
2022-12-14T04:25:40.404Z,2.50
2022-12-14T04:26:40.356Z,2.61
2022-12-14T04:27:40.310Z,2.57
2022-12-14T04:28:40.255Z,2.55
2022-12-14T04:29:45.694Z,2.55
2022-12-14T04:30:40.156Z,2.57
2022-12-14T04:31:40.172Z,2.57
2022-12-14T04:32:40.104Z,2.52
2022-12-14T04:33:40.015Z,2.57
2022-12-14T04:34:39.963Z,2.61
2022-12-14T04:35:39.918Z,2.58
2022-12-14T04:36:39.874Z,2.55
2022-12-14T04:37:39.814Z,2.59
2022-12-14T04:38:39.762Z,2.61
2022-12-14T04:39:39.720Z,2.64
2022-12-14T04:40:39.667Z,2.69
2022-12-14T04:41:39.645Z,2.65
2022-12-14T04:42:39.591Z,2.69
2022-12-14T04:43:39.515Z,2.76
2022-12-14T04:44:39.468Z,2.75
2022-12-14T04:45:39.471Z,2.85
2022-12-14T04:46:40.944Z,2.80
2022-12-14T04:47:39.319Z,2.77
2022-12-14T04:48:39.311Z,2.68
2022-12-14T04:49:39.222Z,2.59
2022-12-14T04:50:39.196Z,2.61
2022-12-14T04:51:39.139Z,2.58
2022-12-14T04:52:39.077Z,2.62
2022-12-14T04:53:39.030Z,2.62
2022-12-14T04:54:38.980Z,2.57
2022-12-14T04:55:38.952Z,2.59
2022-12-14T04:56:38.877Z,2.61
2022-12-14T04:57:38.830Z,2.47
2022-12-14T04:58:38.834Z,2.54
2022-12-14T04:59:38.734Z,2.44
2022-12-14T05:00:38.688Z,2.47
2022-12-14T05:01:38.754Z,2.52
2022-12-14T05:02:38.693Z,2.44
2022-12-14T05:03:38.532Z,2.47
2022-12-14T05:04:38.513Z,2.52
2022-12-14T05:05:38.438Z,2.54
2022-12-14T05:06:38.400Z,2.52
2022-12-14T05:07:38.342Z,2.50
2022-12-14T05:08:38.287Z,2.54
2022-12-14T05:09:38.241Z,2.58
2022-12-14T05:10:38.217Z,2.58
2022-12-14T05:11:54.580Z,2.57
2022-12-14T05:12:38.116Z,2.50
2022-12-14T05:13:38.038Z,2.51
2022-12-14T05:14:37.992Z,2.44
2022-12-14T05:15:37.944Z,2.39
2022-12-14T05:16:37.910Z,2.46
2022-12-14T05:17:37.864Z,2.44
2022-12-14T05:18:37.797Z,2.50
2022-12-14T05:19:37.760Z,2.54
2022-12-14T05:20:37.735Z,2.46
2022-12-14T05:21:37.649Z,2.46
2022-12-14T05:22:37.600Z,2.57
2022-12-14T05:23:37.554Z,2.55
2022-12-14T05:24:37.523Z,2.65
2022-12-14T05:25:37.453Z,2.61
2022-12-14T05:26:37.401Z,2.69
2022-12-14T05:27:37.382Z,2.61
2022-12-14T05:28:37.306Z,2.70
2022-12-14T05:29:37.254Z,2.62
2022-12-14T05:30:37.219Z,2.61
2022-12-14T05:31:37.156Z,2.58
2022-12-14T05:32:37.113Z,2.58
2022-12-14T05:33:37.077Z,2.58
2022-12-14T05:34:37.009Z,2.58
2022-12-14T05:35:36.963Z,2.57
2022-12-14T05:36:36.915Z,2.76
2022-12-14T05:37:36.862Z,2.68
2022-12-14T05:38:36.814Z,2.73
2022-12-14T05:39:36.786Z,2.68
2022-12-14T05:40:36.714Z,2.75
2022-12-14T05:41:36.664Z,2.70
2022-12-14T05:42:42.633Z,2.73
2022-12-14T05:43:36.573Z,2.69
2022-12-14T05:44:36.517Z,2.77
2022-12-14T05:45:36.619Z,2.77
2022-12-14T05:46:36.419Z,2.87
2022-12-14T05:47:36.374Z,2.79
2022-12-14T05:48:36.325Z,2.97
2022-12-14T05:49:36.271Z,2.94
2022-12-14T05:50:36.224Z,2.94
2022-12-14T05:51:36.211Z,2.97
2022-12-14T05:52:36.129Z,3.01
2022-12-14T05:53:36.076Z,3.01
2022-12-14T05:54:36.027Z,3.01
2022-12-14T05:55:35.979Z,3.08
2022-12-14T05:56:35.933Z,3.06
2022-12-14T05:57:35.925Z,3.06
2022-12-14T05:58:35.832Z,3.03
2022-12-14T05:59:35.790Z,2.98
2022-12-14T06:03:48.396Z,2.83
2022-12-14T06:04:47.793Z,2.79
2022-12-14T06:05:47.536Z,2.73
2022-12-14T06:06:47.494Z,2.65
2022-12-14T06:07:47.707Z,2.54
2022-12-14T06:08:47.385Z,2.55
2022-12-14T06:09:49.465Z,2.61
2022-12-14T06:10:47.410Z,2.59
2022-12-14T06:11:47.484Z,2.50
2022-12-14T06:12:47.324Z,2.46
2022-12-14T06:13:47.242Z,2.47
2022-12-14T06:14:47.123Z,2.46
2022-12-14T06:15:47.414Z,2.54
2022-12-14T06:16:47.139Z,2.61
2022-12-14T06:17:46.946Z,2.62
2022-12-14T06:18:46.898Z,2.58
2022-12-14T06:19:50.316Z,2.59
2022-12-14T06:20:46.817Z,2.57
2022-12-14T06:21:46.891Z,2.57
2022-12-14T06:22:47.879Z,2.59
2022-12-14T06:23:46.634Z,2.57
2022-12-14T06:24:46.791Z,2.57
2022-12-14T06:25:46.632Z,2.69
2022-12-14T06:26:46.725Z,2.64
2022-12-14T06:27:46.569Z,2.64
2022-12-14T06:28:46.532Z,2.59
2022-12-14T06:29:46.543Z,2.64
2022-12-14T06:30:46.357Z,2.69
2022-12-14T06:31:49.403Z,2.62
2022-12-14T06:32:46.230Z,2.69
2022-12-14T06:33:46.497Z,2.75
2022-12-14T06:34:46.194Z,2.70
2022-12-14T06:35:46.047Z,2.73
2022-12-14T06:36:46.335Z,2.70
2022-12-14T06:37:48.864Z,2.75
2022-12-14T06:38:45.901Z,2.79
2022-12-14T06:39:49.722Z,2.77
2022-12-14T06:40:45.828Z,2.75
2022-12-14T06:41:45.760Z,2.85
2022-12-14T06:42:46.027Z,2.85
2022-12-14T06:43:45.751Z,2.90
2022-12-14T06:44:50.985Z,2.85
2022-12-14T06:45:45.696Z,2.94
2022-12-14T06:46:47.975Z,2.88
2022-12-14T06:47:45.460Z,2.94
2022-12-14T06:48:46.485Z,2.91
2022-12-14T06:49:45.543Z,3.01
2022-12-14T06:50:46.500Z,2.93
2022-12-14T06:51:45.285Z,3.00
2022-12-14T06:52:45.486Z,3.03
2022-12-14T06:53:45.173Z,3.01
2022-12-14T06:54:55.166Z,3.08
2022-12-14T06:55:45.059Z,3.08
2022-12-14T06:56:45.028Z,3.11
2022-12-14T06:57:44.967Z,3.16
2022-12-14T06:58:44.919Z,3.15
2022-12-14T06:59:44.869Z,3.11
2022-12-14T07:00:44.819Z,3.12
2022-12-14T07:01:44.893Z,3.16
2022-12-14T07:02:44.863Z,3.09
2022-12-14T07:03:44.711Z,3.22
2022-12-14T07:04:44.622Z,3.21
2022-12-14T07:05:48.844Z,3.22
2022-12-14T07:06:44.524Z,3.19
2022-12-14T07:07:44.478Z,3.18
2022-12-14T07:08:44.462Z,3.16
2022-12-14T07:09:44.380Z,3.24
2022-12-14T07:10:44.336Z,3.18
2022-12-14T07:11:44.306Z,3.34
2022-12-14T07:12:44.236Z,3.29
2022-12-14T07:13:44.187Z,3.37
2022-12-14T07:14:44.142Z,3.37
2022-12-14T07:15:44.227Z,3.36
2022-12-14T07:16:47.773Z,3.36
2022-12-14T07:17:43.985Z,3.34
2022-12-14T07:18:43.941Z,3.31
2022-12-14T07:19:43.895Z,3.31
2022-12-14T07:20:43.840Z,3.36
2022-12-14T07:21:43.813Z,3.33
2022-12-14T07:22:43.743Z,3.27
2022-12-14T07:23:43.704Z,3.22
2022-12-14T07:24:43.645Z,3.26
2022-12-14T07:25:43.596Z,3.24
2022-12-14T07:26:43.569Z,3.27
2022-12-14T07:27:43.497Z,3.31
2022-12-14T07:28:43.448Z,3.19
2022-12-14T07:29:43.400Z,3.29
2022-12-14T07:30:43.381Z,3.26
2022-12-14T07:31:43.301Z,3.30
2022-12-14T07:32:43.281Z,3.22
2022-12-14T07:33:43.231Z,3.18
2022-12-14T07:34:43.160Z,3.31
2022-12-14T07:35:43.112Z,3.36
2022-12-14T07:36:43.059Z,3.31
2022-12-14T07:37:43.011Z,3.34
2022-12-14T07:38:42.980Z,3.36
2022-12-14T07:39:42.910Z,3.37
2022-12-14T07:40:42.876Z,3.37
2022-12-14T07:41:42.814Z,3.37
2022-12-14T07:42:42.785Z,3.46
2022-12-14T07:43:42.715Z,3.48
2022-12-14T07:44:42.666Z,3.46
2022-12-14T07:45:42.619Z,3.46
2022-12-14T07:46:42.657Z,3.45
2022-12-14T07:47:42.516Z,3.49
2022-12-14T07:48:42.509Z,3.52
2022-12-14T07:49:42.420Z,3.56
2022-12-14T07:50:42.371Z,3.49
2022-12-14T07:51:42.317Z,3.53
2022-12-14T07:52:42.277Z,3.55
2022-12-14T07:53:42.226Z,3.56
2022-12-14T07:54:42.195Z,3.49
2022-12-14T07:55:42.125Z,3.67
2022-12-14T07:56:42.079Z,3.63
2022-12-14T07:57:42.028Z,3.63
2022-12-14T07:58:41.977Z,3.63
2022-12-14T07:59:41.928Z,3.63
2022-12-14T08:00:41.995Z,3.63
2022-12-14T08:01:41.928Z,3.74
2022-12-14T08:02:41.822Z,3.74
2022-12-14T08:03:41.737Z,3.71
2022-12-14T08:04:41.709Z,3.76
2022-12-14T08:05:41.636Z,3.78
2022-12-14T08:06:41.602Z,3.70
2022-12-14T08:07:41.539Z,3.68
2022-12-14T08:08:41.491Z,3.68
2022-12-14T08:09:41.442Z,3.53
2022-12-14T08:10:41.389Z,3.58
2022-12-14T08:11:41.341Z,3.59
2022-12-14T08:12:41.339Z,3.58
2022-12-14T08:13:41.248Z,3.48
2022-12-14T08:14:41.196Z,3.45
2022-12-14T08:15:41.200Z,3.53
2022-12-14T08:16:41.097Z,3.55
2022-12-14T08:17:41.056Z,3.59
2022-12-14T08:18:41.028Z,3.56
2022-12-14T08:19:40.955Z,3.52
2022-12-14T08:20:40.905Z,3.55
2022-12-14T08:21:40.858Z,3.59
2022-12-14T08:22:40.828Z,3.59
2022-12-14T08:23:40.754Z,3.64
2022-12-14T08:24:40.729Z,3.70
2022-12-14T08:25:40.654Z,3.67
2022-12-14T08:26:40.610Z,3.66
2022-12-14T08:27:40.560Z,3.71
2022-12-14T08:28:40.511Z,3.74
2022-12-14T08:29:40.475Z,3.74
2022-12-14T08:30:40.417Z,3.88
2022-12-14T08:31:40.414Z,3.82
2022-12-14T08:32:40.338Z,3.96
2022-12-14T08:33:40.273Z,3.92
2022-12-14T08:34:40.216Z,4.06
2022-12-14T08:35:40.169Z,4.02
2022-12-14T08:36:40.165Z,4.07
2022-12-14T08:37:45.735Z,4.14
2022-12-14T08:38:40.020Z,4.21
2022-12-14T08:39:39.976Z,4.24
2022-12-14T08:40:39.937Z,4.38
2022-12-14T08:41:39.878Z,4.32
2022-12-14T08:42:39.851Z,4.31
2022-12-14T08:43:39.780Z,4.32
2022-12-14T08:44:39.732Z,4.39
2022-12-14T08:45:39.684Z,4.31
2022-12-14T08:46:39.695Z,4.20
2022-12-14T08:47:39.588Z,4.27
2022-12-14T08:48:39.580Z,4.20
2022-12-14T08:49:39.493Z,4.16
2022-12-14T08:50:39.441Z,4.27
2022-12-14T08:51:39.393Z,4.21
2022-12-14T08:52:39.343Z,4.22
2022-12-14T08:53:39.297Z,4.28
2022-12-14T08:54:39.273Z,4.34
2022-12-14T08:55:39.201Z,4.32
2022-12-14T08:56:39.149Z,4.20
2022-12-14T08:57:39.103Z,4.14
2022-12-14T08:58:39.055Z,4.07
2022-12-14T09:00:00.806Z,4.02
2022-12-14T09:00:39.056Z,3.91
2022-12-14T09:01:39.071Z,3.94
2022-12-14T09:02:39.030Z,3.84
2022-12-14T09:03:38.809Z,3.76
2022-12-14T09:04:38.759Z,3.77
2022-12-14T09:05:38.738Z,3.82
2022-12-14T09:06:38.670Z,3.76
2022-12-14T09:07:38.616Z,3.78
2022-12-14T09:08:38.715Z,3.81
2022-12-14T09:09:38.517Z,3.78
2022-12-14T09:10:38.470Z,3.77
2022-12-14T09:11:38.468Z,3.88
2022-12-14T09:12:38.372Z,3.81
2022-12-14T09:13:38.319Z,3.96
2022-12-14T09:14:38.269Z,4.07
2022-12-14T09:15:38.220Z,4.07
2022-12-14T09:16:38.239Z,4.09
2022-12-14T09:17:38.170Z,4.03
2022-12-14T09:18:38.080Z,4.10
2022-12-14T09:19:38.024Z,4.16
2022-12-14T09:20:37.980Z,3.96
2022-12-14T09:21:37.984Z,3.88
2022-12-14T09:22:37.876Z,3.88
2022-12-14T09:23:37.863Z,3.86
2022-12-14T09:24:37.793Z,3.99
2022-12-14T09:25:37.755Z,4.02
2022-12-14T09:26:37.688Z,4.09
2022-12-14T09:27:37.634Z,4.12
2022-12-14T09:28:37.590Z,4.04
2022-12-14T09:29:37.540Z,4.07
2022-12-14T09:30:37.515Z,4.07
2022-12-14T09:31:37.494Z,4.13
2022-12-14T09:32:37.388Z,4.25
2022-12-14T09:33:37.350Z,4.31
2022-12-14T09:34:37.291Z,4.22
2022-12-14T09:35:37.246Z,4.31
2022-12-14T09:36:37.209Z,4.34
2022-12-14T09:37:37.146Z,4.25
2022-12-14T09:38:37.097Z,4.34
2022-12-14T09:39:37.049Z,4.45
2022-12-14T09:40:37.002Z,4.46
2022-12-14T09:41:36.973Z,4.66
2022-12-14T09:42:36.904Z,4.61
2022-12-14T09:43:37.516Z,4.75
2022-12-14T09:44:36.823Z,4.67
2022-12-14T09:45:36.786Z,4.84
2022-12-14T09:46:36.708Z,4.84
2022-12-14T09:47:36.685Z,4.92
2022-12-14T09:48:36.617Z,4.98
2022-12-14T09:49:36.589Z,5.18
2022-12-14T09:50:36.519Z,5.36
2022-12-14T09:51:36.517Z,5.44
2022-12-14T09:52:36.424Z,5.59
2022-12-14T09:53:36.384Z,5.69
2022-12-14T09:54:36.327Z,5.79
2022-12-14T09:55:36.316Z,5.84
2022-12-14T09:56:36.231Z,5.79
2022-12-14T09:57:36.192Z,5.83
2022-12-14T09:58:36.140Z,5.88
2022-12-14T09:59:36.116Z,5.76
2022-12-14T10:00:36.049Z,5.79
2022-12-14T10:01:36.088Z,5.99
2022-12-14T10:02:36.129Z,6.05
2022-12-14T10:03:36.883Z,6.26
2022-12-14T10:04:35.966Z,6.26
2022-12-14T10:05:35.859Z,6.46
2022-12-14T10:06:35.758Z,6.70
2022-12-14T10:07:35.712Z,6.77
2022-12-14T10:08:35.666Z,6.92
2022-12-14T10:09:35.624Z,6.95
2022-12-14T10:10:35.591Z,6.92
2022-12-14T10:11:35.575Z,7.03
2022-12-14T10:12:35.507Z,6.89
2022-12-14T10:13:35.442Z,6.72
2022-12-14T10:14:39.593Z,6.71
2022-12-14T10:15:35.373Z,6.89
2022-12-14T10:16:35.436Z,6.90
2022-12-14T10:17:35.257Z,6.97
2022-12-14T10:18:58.149Z,7.04
2022-12-14T10:19:35.191Z,7.22
2022-12-14T10:20:35.115Z,7.32
2022-12-14T10:21:35.079Z,7.56
2022-12-14T10:22:35.040Z,7.62
2022-12-14T10:23:34.987Z,7.47
2022-12-14T10:24:34.939Z,7.46
2022-12-14T10:25:34.917Z,7.29
2022-12-14T10:26:34.847Z,7.03
2022-12-14T10:28:01.021Z,6.95
2022-12-14T10:28:34.754Z,6.89
2022-12-14T10:29:34.713Z,6.87
2022-12-14T10:30:34.664Z,6.92
2022-12-14T10:31:34.687Z,6.83
2022-12-14T10:32:34.595Z,6.80
2022-12-14T10:33:34.528Z,6.65
2022-12-14T10:34:34.477Z,6.59
2022-12-14T10:35:34.439Z,6.74
2022-12-14T10:36:34.392Z,6.72
2022-12-14T10:37:34.343Z,6.71
2022-12-14T10:38:34.408Z,6.60
2022-12-14T10:39:34.260Z,6.71
2022-12-14T10:40:34.760Z,6.78
2022-12-14T10:41:34.187Z,6.82
2022-12-14T10:42:34.151Z,6.80
2022-12-14T10:43:34.069Z,6.77
2022-12-14T10:44:34.044Z,6.90
2022-12-14T10:45:42.184Z,6.86
2022-12-14T10:46:33.995Z,6.89
2022-12-14T10:47:33.886Z,6.90
2022-12-14T10:48:33.962Z,6.86
2022-12-14T10:49:33.794Z,6.80
2022-12-14T10:50:33.759Z,6.78
2022-12-14T10:51:33.703Z,6.71
2022-12-14T10:52:33.655Z,6.74
2022-12-14T10:53:38.749Z,6.68
2022-12-14T10:54:33.553Z,6.65
2022-12-14T10:55:33.523Z,6.54
2022-12-14T10:56:33.564Z,6.62
2022-12-14T10:57:33.416Z,6.39
2022-12-14T10:58:33.614Z,6.32
2022-12-14T10:59:39.629Z,6.22
2022-12-14T11:00:33.277Z,6.17
2022-12-14T11:01:33.369Z,6.25
2022-12-14T11:02:33.278Z,6.25
2022-12-14T11:03:33.209Z,6.25
2022-12-14T11:04:33.108Z,6.35
2022-12-14T11:05:36.719Z,6.39
2022-12-14T11:06:32.994Z,6.46
2022-12-14T11:07:32.977Z,6.41
2022-12-14T11:08:32.994Z,6.47
2022-12-14T11:09:32.856Z,6.43
2022-12-14T11:10:32.811Z,6.43
2022-12-14T11:11:32.799Z,6.49
2022-12-14T11:12:32.743Z,6.32
2022-12-14T11:13:32.672Z,6.26
2022-12-14T11:14:32.665Z,6.31
2022-12-14T11:15:32.575Z,6.25
2022-12-14T11:16:36.406Z,6.36
2022-12-14T11:17:32.574Z,6.22
2022-12-14T11:18:32.857Z,6.19
2022-12-14T11:19:32.384Z,6.13
2022-12-14T11:20:32.340Z,6.22
2022-12-14T11:21:32.295Z,6.09
2022-12-14T11:22:32.245Z,6.20
2022-12-14T11:23:32.215Z,6.15
2022-12-14T11:24:32.151Z,6.28
2022-12-14T11:25:32.146Z,6.15
2022-12-14T11:26:32.058Z,6.19
2022-12-14T11:27:32.015Z,6.25
2022-12-14T11:28:36.994Z,5.97
2022-12-14T11:29:31.930Z,6.06
2022-12-14T11:30:31.893Z,6.13
2022-12-14T11:31:31.843Z,6.15
2022-12-14T11:32:31.772Z,6.20
2022-12-14T11:33:31.728Z,6.31
2022-12-14T11:34:31.684Z,6.25
2022-12-14T11:35:31.637Z,6.25
2022-12-14T11:36:31.587Z,6.26
2022-12-14T11:37:31.587Z,6.32
2022-12-14T11:38:31.742Z,6.43
2022-12-14T11:39:31.445Z,6.44
2022-12-14T11:40:31.396Z,6.44
2022-12-14T11:41:31.349Z,6.46
2022-12-14T11:42:31.303Z,6.36
2022-12-14T11:43:31.282Z,6.43
2022-12-14T11:44:31.226Z,6.43
2022-12-14T11:45:31.163Z,6.46
2022-12-14T11:46:31.168Z,6.39
2022-12-14T11:47:31.070Z,6.54
2022-12-14T11:48:31.218Z,6.67
2022-12-14T11:49:30.997Z,6.60
2022-12-14T11:50:30.949Z,6.50
2022-12-14T11:51:30.884Z,6.68
2022-12-14T11:52:30.832Z,6.75
2022-12-14T11:53:30.789Z,6.75
2022-12-14T11:54:30.874Z,6.77
2022-12-14T11:55:30.689Z,6.82
2022-12-14T11:56:30.642Z,6.56
2022-12-14T11:57:30.596Z,6.56
2022-12-14T11:58:30.938Z,6.56
2022-12-14T11:59:30.499Z,6.74
2022-12-14T12:00:30.487Z,6.78
2022-12-14T12:01:30.461Z,6.74
2022-12-14T12:02:30.458Z,6.65
2022-12-14T12:03:30.387Z,6.47
2022-12-14T12:04:30.265Z,6.80
2022-12-14T12:05:30.219Z,6.67
2022-12-14T12:06:30.200Z,6.56
2022-12-14T12:07:30.127Z,6.72
2022-12-14T12:08:30.431Z,6.90
2022-12-14T12:09:30.029Z,6.80
2022-12-14T12:10:29.985Z,6.80
2022-12-14T12:11:30.123Z,6.60
2022-12-14T12:12:29.891Z,6.54
2022-12-14T12:13:29.843Z,6.54
2022-12-14T12:14:29.793Z,6.68
2022-12-14T12:15:29.813Z,6.56
2022-12-14T12:16:29.752Z,6.57
2022-12-14T12:17:29.674Z,6.47
2022-12-14T12:18:29.851Z,6.39
2022-12-14T12:19:29.561Z,6.49
2022-12-14T12:20:29.512Z,6.56
2022-12-14T12:21:29.464Z,6.56
2022-12-14T12:22:29.413Z,6.41
2022-12-14T12:23:29.697Z,6.43
2022-12-14T12:24:29.323Z,6.43
2022-12-14T12:25:35.088Z,6.22
2022-12-14T12:26:29.222Z,6.20
2022-12-14T12:27:29.204Z,6.10
2022-12-14T12:28:29.316Z,6.17
2022-12-14T12:29:29.238Z,6.13
2022-12-14T12:30:29.033Z,6.16
2022-12-14T12:31:29.045Z,6.12
2022-12-14T12:32:28.944Z,6.12
2022-12-14T12:33:28.913Z,6.22
2022-12-14T12:34:28.844Z,6.15
2022-12-14T12:35:28.796Z,6.16
2022-12-14T12:36:28.753Z,6.32
2022-12-14T12:37:28.738Z,6.16
2022-12-14T12:38:28.874Z,6.25
2022-12-14T12:39:28.619Z,6.28
2022-12-14T12:40:28.559Z,6.29
2022-12-14T12:41:28.514Z,6.35
2022-12-14T12:42:28.459Z,6.39
2022-12-14T12:43:28.413Z,6.54
2022-12-14T12:44:28.367Z,6.47
2022-12-14T12:45:28.341Z,6.46
2022-12-14T12:46:28.317Z,6.43
2022-12-14T12:47:38.256Z,6.57
2022-12-14T12:48:28.547Z,6.77
2022-12-14T12:49:28.126Z,6.68
2022-12-14T12:50:28.081Z,6.70
2022-12-14T12:51:28.034Z,6.68
2022-12-14T12:52:27.985Z,6.77
2022-12-14T12:53:27.936Z,6.82
2022-12-14T12:54:27.910Z,6.72
2022-12-14T12:55:27.866Z,6.68
2022-12-14T12:56:27.798Z,6.71
2022-12-14T12:57:27.746Z,6.65
2022-12-14T12:58:27.999Z,6.74
2022-12-14T12:59:27.688Z,6.53
2022-12-14T13:00:27.601Z,6.46
2022-12-14T13:01:27.651Z,6.38
2022-12-14T13:02:27.666Z,6.41
2022-12-14T13:03:27.526Z,6.41
2022-12-14T13:04:27.442Z,6.43
2022-12-14T13:05:46.274Z,6.44
2022-12-14T13:06:27.315Z,6.46
2022-12-14T13:07:27.269Z,6.52
2022-12-14T13:08:27.687Z,6.49
2022-12-14T13:09:27.196Z,6.50
2022-12-14T13:10:27.124Z,6.43
2022-12-14T13:11:27.552Z,6.53
2022-12-14T13:12:27.029Z,6.52
2022-12-14T13:13:27.021Z,6.82
2022-12-14T13:14:26.932Z,6.57
2022-12-14T13:15:26.885Z,6.67
2022-12-14T13:16:27.998Z,6.65
2022-12-14T13:17:26.792Z,6.62
2022-12-14T13:18:57.352Z,6.54
2022-12-14T13:19:51.275Z,6.57
2022-12-14T13:20:26.651Z,6.65
2022-12-14T13:21:26.597Z,6.68